Kalaeloa (John Rodgers Field) Airport Kapolei US
ICAO: PHJR
IATA:
Category: Medium
Scheduled Services:

Elevation: 30 ft
TransAlt. 18000 ft.

Airport Communications:
HONOLULU APP/DEP:118.3
ATIS:119.8
CLNC DEL:121.7
CTAF:132.6
GND:123.8
TWR:132.6

PHJR Zoom In..

Runways:

(A) RW 04L length 4500 ft width 200 ft
---- / hdg 44

(B) RW 04R length 8000 ft width 200 ft
---- / hdg 44

(C) RW 11 length 6000 ft width 200 ft
---- / hdg 108

(D) RW 22L length 8000 ft width 200 ft
---- / hdg 224

(E) RW 22R length 4500 ft width 200 ft
---- / hdg 224

(F) RW 29 length 6000 ft width 200 ft
---- / hdg 288

Location; PHJR
Day. 03 / Time. 10.53 Zulu
* Altimeter: 30.06
* Temperature: 24° c. 75.2°f.
* Wind from: 040° Speed 06 kn.
Dewpoint: 20° c.
Visibility: 9 Statute Miles.
Clouds: Broken 4900 ft.
Clouds: Broken 6500 ft.

PHJR 031053Z AUTO 04006KT 9SM BKN049 BKN065 24/20 A3006 RMK AO2 SLP184 T02440200 TSNO PNO

Going to: --> -->


Wind From 040°
Speed 06 kn.

 
 
jpsmedia worldairports.se 2020   terms of use